sensor_id;sensor_type;location;lat;lon;timestamp;P1;durP1;ratioP1;P2;durP2;ratioP2
462;SDS011;218;51.902;9.542;2023-02-28T00:00:08;4.10;;;3.70;;
462;SDS011;218;51.902;9.542;2023-02-28T00:02:38;3.33;;;3.13;;
462;SDS011;218;51.902;9.542;2023-02-28T00:05:06;4.00;;;3.70;;
462;SDS011;218;51.902;9.542;2023-02-28T00:07:34;5.00;;;4.35;;
462;SDS011;218;51.902;9.542;2023-02-28T00:10:02;3.80;;;3.20;;
462;SDS011;218;51.902;9.542;2023-02-28T00:12:31;2.60;;;2.40;;
462;SDS011;218;51.902;9.542;2023-02-28T00:14:58;3.85;;;3.55;;
462;SDS011;218;51.902;9.542;2023-02-28T00:17:25;3.42;;;3.13;;
462;SDS011;218;51.902;9.542;2023-02-28T00:19:53;4.05;;;3.65;;
462;SDS011;218;51.902;9.542;2023-02-28T00:22:20;4.57;;;3.13;;
462;SDS011;218;51.902;9.542;2023-02-28T00:24:47;2.78;;;2.58;;
462;SDS011;218;51.902;9.542;2023-02-28T00:27:14;2.90;;;2.63;;
462;SDS011;218;51.902;9.542;2023-02-28T00:29:41;3.47;;;3.10;;
462;SDS011;218;51.902;9.542;2023-02-28T00:32:08;3.25;;;2.55;;
462;SDS011;218;51.902;9.542;2023-02-28T00:34:35;3.25;;;2.40;;
462;SDS011;218;51.902;9.542;2023-02-28T00:37:04;2.42;;;2.20;;
462;SDS011;218;51.902;9.542;2023-02-28T00:39:33;4.13;;;2.80;;
462;SDS011;218;51.902;9.542;2023-02-28T00:42:00;4.90;;;3.38;;
462;SDS011;218;51.902;9.542;2023-02-28T00:44:27;3.70;;;2.85;;
462;SDS011;218;51.902;9.542;2023-02-28T00:46:55;2.47;;;2.28;;
462;SDS011;218;51.902;9.542;2023-02-28T00:49:22;3.20;;;2.85;;
462;SDS011;218;51.902;9.542;2023-02-28T00:51:49;3.20;;;2.90;;
462;SDS011;218;51.902;9.542;2023-02-28T00:54:18;3.38;;;3.08;;
462;SDS011;218;51.902;9.542;2023-02-28T00:56:45;4.13;;;3.25;;
462;SDS011;218;51.902;9.542;2023-02-28T00:59:13;3.60;;;2.90;;
462;SDS011;218;51.902;9.542;2023-02-28T01:01:40;6.95;;;3.88;;
462;SDS011;218;51.902;9.542;2023-02-28T01:04:07;4.50;;;3.65;;
462;SDS011;218;51.902;9.542;2023-02-28T01:06:34;5.35;;;4.03;;
462;SDS011;218;51.902;9.542;2023-02-28T01:09:01;4.45;;;4.15;;
462;SDS011;218;51.902;9.542;2023-02-28T01:11:30;4.20;;;3.90;;
462;SDS011;218;51.902;9.542;2023-02-28T01:13:58;4.88;;;4.20;;
462;SDS011;218;51.902;9.542;2023-02-28T01:16:26;4.97;;;4.57;;
462;SDS011;218;51.902;9.542;2023-02-28T01:18:53;4.53;;;4.15;;
462;SDS011;218;51.902;9.542;2023-02-28T01:21:21;5.05;;;4.55;;
462;SDS011;218;51.902;9.542;2023-02-28T01:23:48;5.30;;;4.90;;
462;SDS011;218;51.902;9.542;2023-02-28T01:26:16;5.68;;;4.47;;
462;SDS011;218;51.902;9.542;2023-02-28T01:28:46;3.50;;;3.20;;
462;SDS011;218;51.902;9.542;2023-02-28T01:31:13;3.50;;;3.20;;
462;SDS011;218;51.902;9.542;2023-02-28T01:33:40;3.53;;;3.05;;
462;SDS011;218;51.902;9.542;2023-02-28T01:36:09;2.85;;;2.55;;
462;SDS011;218;51.902;9.542;2023-02-28T01:38:37;2.78;;;2.58;;
462;SDS011;218;51.902;9.542;2023-02-28T01:41:04;3.70;;;3.05;;
462;SDS011;218;51.902;9.542;2023-02-28T01:43:39;2.50;;;2.22;;
462;SDS011;218;51.902;9.542;2023-02-28T01:46:24;1.80;;;1.70;;
462;SDS011;218;51.902;9.542;2023-02-28T01:48:53;2.25;;;2.05;;
462;SDS011;218;51.902;9.542;2023-02-28T01:51:26;1.92;;;1.83;;
462;SDS011;218;51.902;9.542;2023-02-28T01:53:58;1.90;;;1.80;;
462;SDS011;218;51.902;9.542;2023-02-28T01:56:29;1.73;;;1.63;;
462;SDS011;218;51.902;9.542;2023-02-28T01:59:01;2.83;;;2.15;;
462;SDS011;218;51.902;9.542;2023-02-28T02:01:28;3.25;;;2.40;;
462;SDS011;218;51.902;9.542;2023-02-28T02:03:57;2.63;;;2.35;;
462;SDS011;218;51.902;9.542;2023-02-28T02:06:28;3.13;;;2.92;;
462;SDS011;218;51.902;9.542;2023-02-28T02:08:56;2.80;;;2.60;;
462;SDS011;218;51.902;9.542;2023-02-28T02:11:23;3.10;;;2.90;;
462;SDS011;218;51.902;9.542;2023-02-28T02:16:51;3.35;;;3.05;;
462;SDS011;218;51.902;9.542;2023-02-28T02:19:44;3.08;;;2.70;;
462;SDS011;218;51.902;9.542;2023-02-28T02:22:39;3.45;;;3.15;;
462;SDS011;218;51.902;9.542;2023-02-28T02:25:28;2.70;;;2.50;;
462;SDS011;218;51.902;9.542;2023-02-28T02:31:25;2.95;;;2.75;;
462;SDS011;218;51.902;9.542;2023-02-28T02:37:08;2.13;;;2.03;;
462;SDS011;218;51.902;9.542;2023-02-28T02:39:44;2.28;;;2.08;;
462;SDS011;218;51.902;9.542;2023-02-28T02:42:16;2.47;;;2.28;;
462;SDS011;218;51.902;9.542;2023-02-28T02:44:48;2.20;;;2.00;;
462;SDS011;218;51.902;9.542;2023-02-28T02:47:20;2.08;;;1.88;;
462;SDS011;218;51.902;9.542;2023-02-28T02:49:53;2.10;;;1.90;;
462;SDS011;218;51.902;9.542;2023-02-28T02:52:24;2.45;;;2.25;;
462;SDS011;218;51.902;9.542;2023-02-28T02:55:00;2.50;;;2.30;;
462;SDS011;218;51.902;9.542;2023-02-28T02:57:30;2.55;;;2.35;;
462;SDS011;218;51.902;9.542;2023-02-28T03:00:00;2.10;;;1.90;;
462;SDS011;218;51.902;9.542;2023-02-28T03:02:32;2.00;;;1.90;;
462;SDS011;218;51.902;9.542;2023-02-28T03:05:04;1.92;;;1.80;;
462;SDS011;218;51.902;9.542;2023-02-28T03:07:34;2.22;;;2.13;;
462;SDS011;218;51.902;9.542;2023-02-28T03:10:01;2.35;;;2.15;;
462;SDS011;218;51.902;9.542;2023-02-28T03:12:32;1.75;;;1.65;;
462;SDS011;218;51.902;9.542;2023-02-28T03:15:08;1.67;;;1.58;;
462;SDS011;218;51.902;9.542;2023-02-28T03:17:54;2.17;;;2.00;;
462;SDS011;218;51.902;9.542;2023-02-28T03:20:34;2.53;;;2.33;;
462;SDS011;218;51.902;9.542;2023-02-28T03:23:08;3.28;;;3.03;;
462;SDS011;218;51.902;9.542;2023-02-28T03:25:43;3.33;;;3.03;;
462;SDS011;218;51.902;9.542;2023-02-28T03:28:22;3.35;;;3.15;;
462;SDS011;218;51.902;9.542;2023-02-28T03:30:57;2.80;;;2.60;;
462;SDS011;218;51.902;9.542;2023-02-28T03:33:30;3.30;;;3.03;;
462;SDS011;218;51.902;9.542;2023-02-28T03:36:04;3.25;;;3.00;;
462;SDS011;218;51.902;9.542;2023-02-28T03:38:35;3.53;;;3.22;;
462;SDS011;218;51.902;9.542;2023-02-28T03:41:06;3.03;;;2.72;;
462;SDS011;218;51.902;9.542;2023-02-28T03:43:40;4.03;;;3.30;;
462;SDS011;218;51.902;9.542;2023-02-28T03:46:12;3.38;;;3.10;;
462;SDS011;218;51.902;9.542;2023-02-28T03:48:47;3.33;;;3.03;;
462;SDS011;218;51.902;9.542;2023-02-28T03:51:19;2.55;;;2.35;;
462;SDS011;218;51.902;9.542;2023-02-28T03:53:50;3.15;;;2.83;;
462;SDS011;218;51.902;9.542;2023-02-28T03:56:21;2.63;;;2.42;;
462;SDS011;218;51.902;9.542;2023-02-28T03:58:53;2.95;;;2.60;;
462;SDS011;218;51.902;9.542;2023-02-28T04:01:25;2.78;;;2.50;;
462;SDS011;218;51.902;9.542;2023-02-28T04:03:56;2.13;;;2.03;;
462;SDS011;218;51.902;9.542;2023-02-28T04:06:25;2.10;;;1.90;;
462;SDS011;218;51.902;9.542;2023-02-28T04:08:52;2.00;;;1.80;;
462;SDS011;218;51.902;9.542;2023-02-28T04:11:21;1.73;;;1.60;;
462;SDS011;218;51.902;9.542;2023-02-28T04:13:49;2.20;;;2.10;;
462;SDS011;218;51.902;9.542;2023-02-28T04:16:16;2.60;;;2.40;;
462;SDS011;218;51.902;9.542;2023-02-28T04:18:43;1.77;;;1.67;;
462;SDS011;218;51.902;9.542;2023-02-28T04:21:10;2.20;;;2.00;;
462;SDS011;218;51.902;9.542;2023-02-28T04:23:39;2.03;;;1.92;;
462;SDS011;218;51.902;9.542;2023-02-28T04:26:06;2.65;;;2.45;;
462;SDS011;218;51.902;9.542;2023-02-28T04:28:33;3.22;;;2.97;;
462;SDS011;218;51.902;9.542;2023-02-28T04:31:01;3.30;;;2.30;;
462;SDS011;218;51.902;9.542;2023-02-28T04:33:30;3.42;;;3.13;;
462;SDS011;218;51.902;9.542;2023-02-28T04:35:58;3.70;;;2.83;;
462;SDS011;218;51.902;9.542;2023-02-28T04:38:27;3.35;;;2.90;;
462;SDS011;218;51.902;9.542;2023-02-28T04:40:57;5.28;;;4.00;;
462;SDS011;218;51.902;9.542;2023-02-28T04:43:25;4.75;;;4.35;;
462;SDS011;218;51.902;9.542;2023-02-28T04:45:52;4.55;;;3.55;;
462;SDS011;218;51.902;9.542;2023-02-28T04:48:21;4.88;;;3.95;;
462;SDS011;218;51.902;9.542;2023-02-28T04:50:49;4.85;;;4.30;;
462;SDS011;218;51.902;9.542;2023-02-28T04:53:16;4.40;;;3.97;;
462;SDS011;218;51.902;9.542;2023-02-28T04:55:43;3.90;;;3.60;;
462;SDS011;218;51.902;9.542;2023-02-28T04:58:12;3.95;;;3.60;;
462;SDS011;218;51.902;9.542;2023-02-28T05:00:39;3.50;;;3.20;;
462;SDS011;218;51.902;9.542;2023-02-28T05:03:06;3.67;;;3.13;;
462;SDS011;218;51.902;9.542;2023-02-28T05:05:33;3.30;;;3.00;;
462;SDS011;218;51.902;9.542;2023-02-28T05:08:00;3.78;;;3.13;;
462;SDS011;218;51.902;9.542;2023-02-28T05:10:26;3.08;;;2.65;;
462;SDS011;218;51.902;9.542;2023-02-28T05:12:53;3.40;;;2.70;;
462;SDS011;218;51.902;9.542;2023-02-28T05:15:22;2.55;;;2.35;;
462;SDS011;218;51.902;9.542;2023-02-28T05:17:49;2.78;;;2.58;;
462;SDS011;218;51.902;9.542;2023-02-28T05:20:16;2.70;;;2.50;;
462;SDS011;218;51.902;9.542;2023-02-28T05:22:43;3.70;;;2.60;;
462;SDS011;218;51.902;9.542;2023-02-28T05:25:11;2.92;;;2.72;;
462;SDS011;218;51.902;9.542;2023-02-28T05:27:41;4.82;;;3.47;;
462;SDS011;218;51.902;9.542;2023-02-28T05:30:08;4.40;;;3.30;;
462;SDS011;218;51.902;9.542;2023-02-28T05:32:37;3.65;;;2.90;;
462;SDS011;218;51.902;9.542;2023-02-28T05:35:07;3.70;;;3.40;;
462;SDS011;218;51.902;9.542;2023-02-28T05:37:35;4.80;;;4.40;;
462;SDS011;218;51.902;9.542;2023-02-28T05:40:03;4.97;;;3.90;;
462;SDS011;218;51.902;9.542;2023-02-28T05:42:33;4.50;;;4.10;;
462;SDS011;218;51.902;9.542;2023-02-28T05:45:00;4.47;;;4.10;;
462;SDS011;218;51.902;9.542;2023-02-28T05:47:27;3.85;;;3.05;;
462;SDS011;218;51.902;9.542;2023-02-28T05:49:55;4.32;;;4.03;;
462;SDS011;218;51.902;9.542;2023-02-28T05:52:22;4.72;;;4.35;;
462;SDS011;218;51.902;9.542;2023-02-28T05:54:49;5.30;;;3.75;;
462;SDS011;218;51.902;9.542;2023-02-28T05:57:16;3.70;;;3.40;;
462;SDS011;218;51.902;9.542;2023-02-28T05:59:43;4.05;;;3.65;;
462;SDS011;218;51.902;9.542;2023-02-28T06:02:10;3.80;;;3.50;;
462;SDS011;218;51.902;9.542;2023-02-28T06:04:39;4.35;;;3.95;;
462;SDS011;218;51.902;9.542;2023-02-28T06:07:08;5.00;;;4.50;;
462;SDS011;218;51.902;9.542;2023-02-28T06:09:35;6.45;;;4.38;;
462;SDS011;218;51.902;9.542;2023-02-28T06:12:03;5.68;;;4.90;;
462;SDS011;218;51.902;9.542;2023-02-28T06:14:32;5.72;;;4.75;;
462;SDS011;218;51.902;9.542;2023-02-28T06:17:01;5.47;;;4.70;;
462;SDS011;218;51.902;9.542;2023-02-28T06:19:29;4.93;;;4.03;;
462;SDS011;218;51.902;9.542;2023-02-28T06:21:56;6.60;;;4.95;;
462;SDS011;218;51.902;9.542;2023-02-28T06:24:26;6.60;;;4.50;;
462;SDS011;218;51.902;9.542;2023-02-28T06:26:54;4.75;;;3.78;;
462;SDS011;218;51.902;9.542;2023-02-28T06:29:21;4.95;;;3.95;;
462;SDS011;218;51.902;9.542;2023-02-28T06:31:48;3.45;;;3.15;;
462;SDS011;218;51.902;9.542;2023-02-28T06:34:15;5.30;;;3.25;;
462;SDS011;218;51.902;9.542;2023-02-28T06:36:43;3.65;;;2.70;;
462;SDS011;218;51.902;9.542;2023-02-28T06:39:09;5.95;;;4.57;;
462;SDS011;218;51.902;9.542;2023-02-28T06:41:38;6.95;;;6.30;;
462;SDS011;218;51.902;9.542;2023-02-28T06:44:05;6.10;;;5.50;;
462;SDS011;218;51.902;9.542;2023-02-28T06:46:39;5.72;;;5.13;;
462;SDS011;218;51.902;9.542;2023-02-28T06:49:07;4.78;;;4.35;;
462;SDS011;218;51.902;9.542;2023-02-28T06:51:34;4.78;;;4.38;;
462;SDS011;218;51.902;9.542;2023-02-28T06:54:03;4.47;;;4.18;;
462;SDS011;218;51.902;9.542;2023-02-28T06:56:30;4.20;;;3.90;;
462;SDS011;218;51.902;9.542;2023-02-28T06:58:59;5.00;;;4.50;;
462;SDS011;218;51.902;9.542;2023-02-28T07:01:26;6.13;;;5.35;;
462;SDS011;218;51.902;9.542;2023-02-28T07:03:54;4.60;;;4.20;;
462;SDS011;218;51.902;9.542;2023-02-28T07:06:21;5.00;;;4.60;;
462;SDS011;218;51.902;9.542;2023-02-28T07:08:49;4.45;;;3.63;;
462;SDS011;218;51.902;9.542;2023-02-28T07:11:17;3.75;;;3.45;;
462;SDS011;218;51.902;9.542;2023-02-28T07:13:44;4.00;;;3.30;;
462;SDS011;218;51.902;9.542;2023-02-28T07:16:13;3.78;;;2.92;;
462;SDS011;218;51.902;9.542;2023-02-28T07:18:40;3.38;;;3.08;;
462;SDS011;218;51.902;9.542;2023-02-28T07:21:08;3.58;;;3.28;;
462;SDS011;218;51.902;9.542;2023-02-28T07:23:36;6.68;;;3.90;;
462;SDS011;218;51.902;9.542;2023-02-28T07:26:05;5.72;;;4.65;;
462;SDS011;218;51.902;9.542;2023-02-28T07:28:32;11.23;;;7.45;;
462;SDS011;218;51.902;9.542;2023-02-28T07:31:02;11.55;;;7.55;;
462;SDS011;218;51.902;9.542;2023-02-28T07:33:31;12.13;;;9.52;;
462;SDS011;218;51.902;9.542;2023-02-28T07:36:00;10.45;;;7.25;;
462;SDS011;218;51.902;9.542;2023-02-28T07:38:27;10.70;;;7.05;;
462;SDS011;218;51.902;9.542;2023-02-28T07:40:54;6.07;;;5.47;;
462;SDS011;218;51.902;9.542;2023-02-28T07:43:21;7.72;;;6.18;;
462;SDS011;218;51.902;9.542;2023-02-28T07:45:48;6.03;;;5.20;;
462;SDS011;218;51.902;9.542;2023-02-28T07:48:15;6.50;;;5.88;;
462;SDS011;218;51.902;9.542;2023-02-28T07:50:43;6.18;;;5.50;;
462;SDS011;218;51.902;9.542;2023-02-28T07:53:13;5.10;;;4.60;;
462;SDS011;218;51.902;9.542;2023-02-28T07:55:40;5.22;;;4.57;;
462;SDS011;218;51.902;9.542;2023-02-28T07:58:06;5.68;;;5.18;;
462;SDS011;218;51.902;9.542;2023-02-28T08:00:33;7.15;;;5.10;;
462;SDS011;218;51.902;9.542;2023-02-28T08:03:00;5.00;;;4.50;;
462;SDS011;218;51.902;9.542;2023-02-28T08:05:27;5.80;;;4.00;;
462;SDS011;218;51.902;9.542;2023-02-28T08:07:56;4.70;;;4.20;;
462;SDS011;218;51.902;9.542;2023-02-28T08:10:23;4.70;;;4.25;;
462;SDS011;218;51.902;9.542;2023-02-28T08:12:50;4.53;;;4.13;;
462;SDS011;218;51.902;9.542;2023-02-28T08:15:17;3.13;;;2.85;;
462;SDS011;218;51.902;9.542;2023-02-28T08:17:44;3.78;;;3.47;;
462;SDS011;218;51.902;9.542;2023-02-28T08:20:11;3.85;;;3.53;;
462;SDS011;218;51.902;9.542;2023-02-28T08:22:38;3.40;;;3.10;;
462;SDS011;218;51.902;9.542;2023-02-28T08:25:07;3.80;;;3.28;;
462;SDS011;218;51.902;9.542;2023-02-28T08:27:35;4.63;;;4.30;;
462;SDS011;218;51.902;9.542;2023-02-28T08:30:03;3.65;;;3.38;;
462;SDS011;218;51.902;9.542;2023-02-28T08:32:31;3.45;;;3.15;;
462;SDS011;218;51.902;9.542;2023-02-28T08:34:58;3.40;;;3.20;;
462;SDS011;218;51.902;9.542;2023-02-28T08:37:26;4.22;;;3.83;;
462;SDS011;218;51.902;9.542;2023-02-28T08:39:53;2.97;;;2.78;;
462;SDS011;218;51.902;9.542;2023-02-28T08:42:22;3.13;;;2.75;;
462;SDS011;218;51.902;9.542;2023-02-28T08:44:49;3.72;;;3.50;;
462;SDS011;218;51.902;9.542;2023-02-28T08:47:16;3.90;;;3.53;;
462;SDS011;218;51.902;9.542;2023-02-28T08:49:43;4.53;;;3.25;;
462;SDS011;218;51.902;9.542;2023-02-28T08:52:10;4.15;;;3.70;;
462;SDS011;218;51.902;9.542;2023-02-28T08:54:37;3.72;;;3.05;;
462;SDS011;218;51.902;9.542;2023-02-28T08:57:04;4.00;;;3.70;;
462;SDS011;218;51.902;9.542;2023-02-28T08:59:32;4.70;;;3.63;;
462;SDS011;218;51.902;9.542;2023-02-28T09:01:59;3.63;;;3.00;;
462;SDS011;218;51.902;9.542;2023-02-28T09:04:26;4.40;;;3.95;;
462;SDS011;218;51.902;9.542;2023-02-28T09:06:55;3.65;;;3.35;;
462;SDS011;218;51.902;9.542;2023-02-28T09:09:22;3.92;;;3.53;;
462;SDS011;218;51.902;9.542;2023-02-28T09:11:49;4.90;;;3.83;;
462;SDS011;218;51.902;9.542;2023-02-28T09:14:16;3.65;;;3.05;;
462;SDS011;218;51.902;9.542;2023-02-28T09:16:44;3.30;;;3.00;;
462;SDS011;218;51.902;9.542;2023-02-28T09:19:11;3.42;;;3.13;;
462;SDS011;218;51.902;9.542;2023-02-28T09:21:38;3.25;;;2.95;;
462;SDS011;218;51.902;9.542;2023-02-28T09:24:05;3.75;;;3.45;;
462;SDS011;218;51.902;9.542;2023-02-28T09:26:33;3.50;;;3.00;;
462;SDS011;218;51.902;9.542;2023-02-28T09:29:00;3.70;;;3.28;;
462;SDS011;218;51.902;9.542;2023-02-28T09:31:27;5.00;;;3.22;;
462;SDS011;218;51.902;9.542;2023-02-28T09:33:56;3.33;;;3.03;;
462;SDS011;218;51.902;9.542;2023-02-28T09:36:25;2.50;;;2.20;;
462;SDS011;218;51.902;9.542;2023-02-28T09:38:53;2.63;;;2.42;;
462;SDS011;218;51.902;9.542;2023-02-28T09:41:21;2.72;;;2.50;;
462;SDS011;218;51.902;9.542;2023-02-28T09:43:50;2.63;;;2.42;;
462;SDS011;218;51.902;9.542;2023-02-28T09:46:26;2.97;;;2.40;;
462;SDS011;218;51.902;9.542;2023-02-28T09:48:58;3.25;;;2.40;;
462;SDS011;218;51.902;9.542;2023-02-28T09:51:30;3.17;;;2.85;;
462;SDS011;218;51.902;9.542;2023-02-28T09:54:06;4.05;;;2.78;;
462;SDS011;218;51.902;9.542;2023-02-28T09:56:36;3.35;;;2.90;;
462;SDS011;218;51.902;9.542;2023-02-28T09:59:10;5.03;;;2.65;;
462;SDS011;218;51.902;9.542;2023-02-28T10:01:45;3.70;;;3.38;;
462;SDS011;218;51.902;9.542;2023-02-28T10:04:32;4.95;;;3.30;;
462;SDS011;218;51.902;9.542;2023-02-28T10:07:10;3.80;;;2.75;;
462;SDS011;218;51.902;9.542;2023-02-28T10:09:45;2.75;;;2.55;;
462;SDS011;218;51.902;9.542;2023-02-28T10:12:17;3.95;;;3.10;;
462;SDS011;218;51.902;9.542;2023-02-28T10:14:47;3.47;;;2.22;;
462;SDS011;218;51.902;9.542;2023-02-28T10:17:17;3.35;;;2.47;;
462;SDS011;218;51.902;9.542;2023-02-28T10:19:51;2.90;;;2.70;;
462;SDS011;218;51.902;9.542;2023-02-28T10:22:25;2.15;;;2.05;;
462;SDS011;218;51.902;9.542;2023-02-28T10:24:58;2.95;;;2.42;;
462;SDS011;218;51.902;9.542;2023-02-28T10:27:29;2.78;;;2.50;;
462;SDS011;218;51.902;9.542;2023-02-28T10:29:57;3.05;;;2.70;;
462;SDS011;218;51.902;9.542;2023-02-28T10:32:27;2.83;;;2.35;;
462;SDS011;218;51.902;9.542;2023-02-28T10:34:59;2.80;;;2.00;;
462;SDS011;218;51.902;9.542;2023-02-28T10:37:27;2.50;;;2.30;;
462;SDS011;218;51.902;9.542;2023-02-28T10:39:54;2.40;;;2.20;;
462;SDS011;218;51.902;9.542;2023-02-28T10:42:22;3.20;;;2.85;;
462;SDS011;218;51.902;9.542;2023-02-28T10:45:04;4.57;;;2.60;;
462;SDS011;218;51.902;9.542;2023-02-28T10:47:36;2.08;;;1.98;;
462;SDS011;218;51.902;9.542;2023-02-28T10:50:30;3.22;;;2.67;;
462;SDS011;218;51.902;9.542;2023-02-28T10:55:45;2.72;;;2.53;;
462;SDS011;218;51.902;9.542;2023-02-28T10:58:22;2.45;;;2.35;;
462;SDS011;218;51.902;9.542;2023-02-28T11:00:50;3.67;;;2.85;;
462;SDS011;218;51.902;9.542;2023-02-28T11:03:23;3.35;;;3.10;;
462;SDS011;218;51.902;9.542;2023-02-28T11:05:52;4.32;;;2.97;;
462;SDS011;218;51.902;9.542;2023-02-28T11:08:19;2.67;;;2.47;;
462;SDS011;218;51.902;9.542;2023-02-28T11:10:46;3.47;;;2.95;;
462;SDS011;218;51.902;9.542;2023-02-28T11:13:16;2.38;;;2.28;;
462;SDS011;218;51.902;9.542;2023-02-28T11:15:49;2.83;;;2.60;;
462;SDS011;218;51.902;9.542;2023-02-28T11:18:20;2.95;;;2.75;;
462;SDS011;218;51.902;9.542;2023-02-28T11:20:52;2.60;;;2.42;;
462;SDS011;218;51.902;9.542;2023-02-28T11:23:21;2.92;;;2.72;;
462;SDS011;218;51.902;9.542;2023-02-28T11:25:52;3.55;;;2.50;;
462;SDS011;218;51.902;9.542;2023-02-28T11:28:25;2.78;;;2.50;;
462;SDS011;218;51.902;9.542;2023-02-28T11:31:01;2.92;;;2.72;;
462;SDS011;218;51.902;9.542;2023-02-28T11:33:29;3.33;;;3.03;;
462;SDS011;218;51.902;9.542;2023-02-28T11:36:00;4.82;;;3.67;;
462;SDS011;218;51.902;9.542;2023-02-28T11:38:27;2.90;;;2.70;;
462;SDS011;218;51.902;9.542;2023-02-28T11:41:02;3.53;;;3.10;;
462;SDS011;218;51.902;9.542;2023-02-28T11:43:39;3.15;;;2.63;;
462;SDS011;218;51.902;9.542;2023-02-28T11:46:22;2.72;;;2.30;;
462;SDS011;218;51.902;9.542;2023-02-28T11:48:58;2.75;;;2.35;;
462;SDS011;218;51.902;9.542;2023-02-28T11:51:33;2.97;;;2.30;;
462;SDS011;218;51.902;9.542;2023-02-28T11:54:23;3.25;;;2.95;;
462;SDS011;218;51.902;9.542;2023-02-28T11:57:03;3.13;;;2.80;;
462;SDS011;218;51.902;9.542;2023-02-28T11:59:39;3.60;;;3.30;;
462;SDS011;218;51.902;9.542;2023-02-28T12:02:17;3.13;;;2.92;;
462;SDS011;218;51.902;9.542;2023-02-28T12:04:52;3.15;;;2.92;;
462;SDS011;218;51.902;9.542;2023-02-28T12:07:31;3.03;;;2.83;;
462;SDS011;218;51.902;9.542;2023-02-28T12:10:05;5.50;;;3.55;;
462;SDS011;218;51.902;9.542;2023-02-28T12:12:44;3.38;;;3.00;;
462;SDS011;218;51.902;9.542;2023-02-28T12:18:14;4.10;;;2.90;;
462;SDS011;218;51.902;9.542;2023-02-28T12:20:44;3.30;;;3.05;;
462;SDS011;218;51.902;9.542;2023-02-28T12:23:30;3.88;;;3.58;;
462;SDS011;218;51.902;9.542;2023-02-28T12:26:06;4.10;;;3.42;;
462;SDS011;218;51.902;9.542;2023-02-28T12:28:40;3.85;;;3.55;;
462;SDS011;218;51.902;9.542;2023-02-28T12:31:09;3.80;;;3.20;;
462;SDS011;218;51.902;9.542;2023-02-28T12:33:39;3.75;;;3.35;;
462;SDS011;218;51.902;9.542;2023-02-28T12:36:10;4.22;;;3.70;;
462;SDS011;218;51.902;9.542;2023-02-28T12:38:43;3.65;;;3.45;;
462;SDS011;218;51.902;9.542;2023-02-28T12:41:12;2.95;;;2.75;;
462;SDS011;218;51.902;9.542;2023-02-28T12:43:41;3.80;;;3.50;;
462;SDS011;218;51.902;9.542;2023-02-28T12:46:10;3.83;;;3.53;;
462;SDS011;218;51.902;9.542;2023-02-28T12:48:41;3.50;;;3.20;;
462;SDS011;218;51.902;9.542;2023-02-28T12:51:11;3.65;;;3.35;;
462;SDS011;218;51.902;9.542;2023-02-28T12:53:44;3.67;;;3.25;;
462;SDS011;218;51.902;9.542;2023-02-28T12:56:15;4.60;;;3.20;;
462;SDS011;218;51.902;9.542;2023-02-28T12:58:45;3.38;;;3.17;;
462;SDS011;218;51.902;9.542;2023-02-28T13:01:28;5.70;;;5.30;;
462;SDS011;218;51.902;9.542;2023-02-28T13:07:00;4.20;;;3.85;;
462;SDS011;218;51.902;9.542;2023-02-28T13:09:32;3.83;;;3.58;;
462;SDS011;218;51.902;9.542;2023-02-28T13:11:59;4.47;;;3.70;;
462;SDS011;218;51.902;9.542;2023-02-28T13:14:27;3.58;;;3.28;;
462;SDS011;218;51.902;9.542;2023-02-28T13:16:57;4.40;;;4.00;;
462;SDS011;218;51.902;9.542;2023-02-28T13:19:25;4.93;;;4.22;;
462;SDS011;218;51.902;9.542;2023-02-28T13:21:54;4.03;;;3.72;;
462;SDS011;218;51.902;9.542;2023-02-28T13:27:22;4.50;;;3.50;;
462;SDS011;218;51.902;9.542;2023-02-28T13:29:58;5.32;;;3.80;;
462;SDS011;218;51.902;9.542;2023-02-28T13:32:30;4.15;;;3.47;;
462;SDS011;218;51.902;9.542;2023-02-28T13:38:24;4.43;;;4.13;;
462;SDS011;218;51.902;9.542;2023-02-28T13:40:53;3.55;;;3.35;;
462;SDS011;218;51.902;9.542;2023-02-28T13:43:20;4.00;;;3.60;;
462;SDS011;218;51.902;9.542;2023-02-28T13:48:35;4.80;;;3.30;;
462;SDS011;218;51.902;9.542;2023-02-28T13:54:15;3.58;;;3.25;;
462;SDS011;218;51.902;9.542;2023-02-28T13:56:47;3.70;;;3.50;;
462;SDS011;218;51.902;9.542;2023-02-28T13:59:22;4.38;;;4.10;;
462;SDS011;218;51.902;9.542;2023-02-28T14:01:54;4.60;;;4.20;;
462;SDS011;218;51.902;9.542;2023-02-28T14:04:44;4.32;;;4.03;;
462;SDS011;218;51.902;9.542;2023-02-28T14:07:21;4.20;;;3.80;;
462;SDS011;218;51.902;9.542;2023-02-28T14:09:55;3.65;;;3.35;;
462;SDS011;218;51.902;9.542;2023-02-28T14:18:01;3.90;;;3.60;;
462;SDS011;218;51.902;9.542;2023-02-28T14:20:31;4.28;;;3.97;;
462;SDS011;218;51.902;9.542;2023-02-28T14:23:01;4.38;;;4.10;;
462;SDS011;218;51.902;9.542;2023-02-28T14:25:34;4.63;;;4.30;;
462;SDS011;218;51.902;9.542;2023-02-28T14:28:07;4.30;;;3.93;;
462;SDS011;218;51.902;9.542;2023-02-28T14:30:50;5.50;;;5.00;;
462;SDS011;218;51.902;9.542;2023-02-28T14:33:23;4.70;;;4.40;;
462;SDS011;218;51.902;9.542;2023-02-28T14:36:03;9.70;;;6.30;;
462;SDS011;218;51.902;9.542;2023-02-28T14:38:32;5.65;;;5.25;;
462;SDS011;218;51.902;9.542;2023-02-28T14:41:00;4.70;;;4.30;;
462;SDS011;218;51.902;9.542;2023-02-28T14:43:31;4.30;;;4.00;;
462;SDS011;218;51.902;9.542;2023-02-28T14:46:00;4.65;;;4.25;;
462;SDS011;218;51.902;9.542;2023-02-28T14:48:28;4.70;;;4.30;;
462;SDS011;218;51.902;9.542;2023-02-28T14:50:56;4.45;;;4.10;;
462;SDS011;218;51.902;9.542;2023-02-28T14:53:25;4.65;;;4.25;;
462;SDS011;218;51.902;9.542;2023-02-28T14:55:54;4.93;;;4.53;;
462;SDS011;218;51.902;9.542;2023-02-28T14:58:22;4.53;;;4.23;;
462;SDS011;218;51.902;9.542;2023-02-28T15:00:52;5.15;;;4.28;;
462;SDS011;218;51.902;9.542;2023-02-28T15:03:22;4.10;;;3.90;;
462;SDS011;218;51.902;9.542;2023-02-28T15:05:54;4.80;;;4.50;;
462;SDS011;218;51.902;9.542;2023-02-28T15:08:22;5.35;;;4.88;;
462;SDS011;218;51.902;9.542;2023-02-28T15:10:53;4.63;;;4.22;;
462;SDS011;218;51.902;9.542;2023-02-28T15:13:20;4.57;;;4.25;;
462;SDS011;218;51.902;9.542;2023-02-28T15:15:49;4.55;;;4.25;;
462;SDS011;218;51.902;9.542;2023-02-28T15:18:23;5.05;;;4.57;;
462;SDS011;218;51.902;9.542;2023-02-28T15:21:03;3.92;;;3.72;;
462;SDS011;218;51.902;9.542;2023-02-28T15:23:33;4.82;;;4.43;;
462;SDS011;218;51.902;9.542;2023-02-28T15:26:02;4.93;;;4.50;;
462;SDS011;218;51.902;9.542;2023-02-28T15:28:30;5.55;;;5.18;;
462;SDS011;218;51.902;9.542;2023-02-28T15:30:58;6.00;;;4.50;;
462;SDS011;218;51.902;9.542;2023-02-28T15:33:28;4.60;;;4.20;;
462;SDS011;218;51.902;9.542;2023-02-28T15:36:06;4.75;;;4.43;;
462;SDS011;218;51.902;9.542;2023-02-28T15:38:37;4.43;;;4.03;;
462;SDS011;218;51.902;9.542;2023-02-28T15:41:04;4.25;;;3.95;;
462;SDS011;218;51.902;9.542;2023-02-28T15:43:34;4.35;;;3.95;;
462;SDS011;218;51.902;9.542;2023-02-28T15:46:02;4.75;;;4.45;;
462;SDS011;218;51.902;9.542;2023-02-28T15:48:33;4.00;;;3.70;;
462;SDS011;218;51.902;9.542;2023-02-28T16:06:44;5.57;;;5.18;;
462;SDS011;218;51.902;9.542;2023-02-28T16:09:14;5.32;;;4.63;;
462;SDS011;218;51.902;9.542;2023-02-28T16:11:42;4.85;;;4.45;;
462;SDS011;218;51.902;9.542;2023-02-28T16:14:15;4.18;;;3.88;;
462;SDS011;218;51.902;9.542;2023-02-28T16:16:43;5.00;;;4.63;;
462;SDS011;218;51.902;9.542;2023-02-28T16:19:11;5.82;;;5.38;;
462;SDS011;218;51.902;9.542;2023-02-28T16:21:39;4.32;;;4.03;;
462;SDS011;218;51.902;9.542;2023-02-28T16:24:07;5.65;;;5.22;;
462;SDS011;218;51.902;9.542;2023-02-28T16:26:34;4.97;;;4.57;;
462;SDS011;218;51.902;9.542;2023-02-28T16:29:04;5.22;;;4.80;;
462;SDS011;218;51.902;9.542;2023-02-28T16:31:32;5.15;;;4.75;;
462;SDS011;218;51.902;9.542;2023-02-28T16:34:01;5.18;;;4.78;;
462;SDS011;218;51.902;9.542;2023-02-28T16:36:28;5.20;;;4.70;;
462;SDS011;218;51.902;9.542;2023-02-28T16:38:56;5.22;;;4.75;;
462;SDS011;218;51.902;9.542;2023-02-28T16:41:25;5.22;;;4.82;;
462;SDS011;218;51.902;9.542;2023-02-28T16:43:55;5.78;;;5.28;;
462;SDS011;218;51.902;9.542;2023-02-28T16:46:25;5.10;;;4.60;;
462;SDS011;218;51.902;9.542;2023-02-28T16:48:56;6.15;;;5.65;;
462;SDS011;218;51.902;9.542;2023-02-28T16:51:23;5.82;;;5.18;;
462;SDS011;218;51.902;9.542;2023-02-28T16:53:49;4.90;;;4.45;;